Time;durP1;ratioP1;P1;durP2;ratioP2;P2;SDS_P1;SDS_P2;PMS_P1;PMS_P2;Temp;Humidity;BMP_temperature;BMP_pressure;BME280_temperature;BME280_humidity;BME280_pressure;Samples;Min_cycle;Max_cycle;Signal;HPM_P1;HPM_P2
2023/01/24 00:00:29;;;;;;;;;;;;;;;4.77;100.00;101116.66;4977692;28;19922;-82
2023/01/24 00:02:54;;;;;;;;;;;;;;;4.83;100.00;101122.06;4971473;28;19929;-81
2023/01/24 00:05:19;;;;;;;;;;;;;;;4.68;100.00;101122.50;4985334;28;19917;-84
2023/01/24 00:07:45;;;;;;;;;;;;;;;4.61;100.00;101123.13;4986662;28;19926;-83
2023/01/24 00:10:10;;;;;;;;;;;;;;;4.46;100.00;101121.81;4983946;28;19928;-81
2023/01/24 00:12:36;;;;;;;;;;;;;;;4.44;100.00;101122.59;4987121;28;19969;-81
2023/01/24 00:15:01;;;;;;;;;;;;;;;4.42;100.00;101119.03;4983136;28;19925;-81
2023/01/24 00:17:27;;;;;;;;;;;;;;;4.37;100.00;101128.44;4987700;28;19925;-81
2023/01/24 00:19:52;;;;;;;;;;;;;;;4.28;100.00;101126.41;4978443;28;19929;-80
2023/01/24 00:22:17;;;;;;;;;;;;;;;4.30;100.00;101136.06;4967835;28;19922;-82
2023/01/24 00:24:43;;;;;;;;;;;;;;;4.48;100.00;101125.34;4980527;28;20404;-81
2023/01/24 00:27:08;;;;;;;;;;;;;;;4.55;100.00;101129.03;4987542;28;19929;-81
2023/01/24 00:29:33;;;;;;;;;;;;;;;4.52;100.00;101133.28;4982324;28;20020;-81
2023/01/24 00:31:59;;;;;;;;;;;;;;;4.48;100.00;101130.56;4988679;28;20339;-81
2023/01/24 00:34:24;;;;;;;;;;;;;;;4.55;100.00;101136.00;4981344;28;19926;-82
2023/01/24 00:36:49;;;;;;;;;;;;;;;4.35;100.00;101124.88;4982103;28;19926;-82
2023/01/24 00:39:15;;;;;;;;;;;;;;;4.41;100.00;101128.56;4976150;28;19985;-84
2023/01/24 00:41:40;;;;;;;;;;;;;;;4.32;100.00;101128.28;4980996;28;20404;-81
2023/01/24 00:44:05;;;;;;;;;;;;;;;4.25;100.00;101121.97;4987551;28;19922;-81
2023/01/24 00:46:31;;;;;;;;;;;;;;;4.15;100.00;101126.84;4987762;28;19932;-81
2023/01/24 00:48:56;;;;;;;;;;;;;;;4.18;100.00;101130.44;4987603;28;19921;-81
2023/01/24 00:51:21;;;;;;;;;;;;;;;4.29;100.00;101121.25;4987920;28;19929;-81
2023/01/24 00:53:47;;;;;;;;;;;;;;;4.36;100.00;101137.13;4987670;28;19928;-81
2023/01/24 00:56:12;;;;;;;;;;;;;;;4.36;100.00;101134.50;4987541;28;19965;-81
2023/01/24 00:58:37;;;;;;;;;;;;;;;4.35;100.00;101132.72;4987820;28;19984;-81
2023/01/24 01:01:03;;;;;;;;;;;;;;;4.36;100.00;101137.13;4987794;28;19922;-81
2023/01/24 01:03:28;;;;;;;;;;;;;;;4.28;100.00;101136.88;4987663;28;19921;-81
2023/01/24 01:06:12;;;;;;;;;;;;;;;4.36;100.00;101135.38;4986321;28;20454;-81
2023/01/24 01:08:38;;;;;;;;;;;;;;;4.19;100.00;101134.81;4987381;28;19983;-81
2023/01/24 01:11:03;;;;;;;;;;;;;;;4.23;100.00;101141.94;4987512;28;19953;-80
2023/01/24 01:13:28;;;;;;;;;;;;;;;4.16;100.00;101139.94;4987763;28;20016;-80
2023/01/24 01:16:11;;;;;;;;;;;;;;;4.26;100.00;101146.34;4981273;28;19926;-81
2023/01/24 01:18:36;;;;;;;;;;;;;;;4.01;100.00;101148.13;4972020;28;20301;-81
2023/01/24 01:21:02;;;;;;;;;;;;;;;3.96;100.00;101149.69;4970188;28;19933;-81
2023/01/24 01:23:27;;;;;;;;;;;;;;;3.98;100.00;101137.56;4987489;28;19922;-80
2023/01/24 01:25:52;;;;;;;;;;;;;;;4.13;100.00;101138.09;4987091;28;19926;-84
2023/01/24 01:28:18;;;;;;;;;;;;;;;4.10;100.00;101137.13;4987227;28;19922;-85
2023/01/24 01:30:48;;;;;;;;;;;;;;;4.08;100.00;101144.91;4987357;28;19930;-81
2023/01/24 01:33:13;;;;;;;;;;;;;;;4.05;100.00;101141.31;4987096;28;19929;-84
2023/01/24 01:35:38;;;;;;;;;;;;;;;4.09;100.00;101149.31;4986790;28;20020;-83
2023/01/24 01:38:04;;;;;;;;;;;;;;;3.99;100.00;101147.19;4986724;28;19928;-83
2023/01/24 01:40:29;;;;;;;;;;;;;;;4.03;100.00;101138.66;4969816;28;19929;-83
2023/01/24 01:42:55;;;;;;;;;;;;;;;4.21;100.00;101140.97;4987242;28;19921;-83
2023/01/24 01:45:39;;;;;;;;;;;;;;;4.04;100.00;101137.78;4969976;28;19993;-83
2023/01/24 01:48:12;;;;;;;;;;;;;;;4.04;100.00;101135.19;4986979;28;20028;-82
2023/01/24 01:50:40;;;;;;;;;;;;;;;4.21;100.00;101133.13;4987460;28;20016;-83
2023/01/24 01:53:05;;;;;;;;;;;;;;;4.05;100.00;101138.69;4985697;28;20370;-83
2023/01/24 01:55:33;;;;;;;;;;;;;;;4.07;100.00;101134.41;4987171;28;19925;-82
2023/01/24 01:58:00;;;;;;;;;;;;;;;4.07;100.00;101131.78;4987174;28;19922;-82
2023/01/24 02:00:29;;;;;;;;;;;;;;;3.83;100.00;101134.44;4987174;28;19918;-80
2023/01/24 02:03:37;;;;;;;;;;;;;;;3.99;100.00;101133.25;4987133;28;19932;-80
2023/01/24 02:05:44;;;;;;;;;;;;;;;4.02;100.00;101130.75;4987081;28;20529;-80
2023/01/24 02:08:12;;;;;;;;;;;;;;;3.92;100.00;101132.13;4986553;28;19969;-80
2023/01/24 02:13:21;;;;;;;;;;;;;;;3.88;100.00;101140.72;4986869;28;19928;-81
2023/01/24 02:16:05;;;;;;;;;;;;;;;3.90;100.00;101144.25;4985832;28;19925;-81
2023/01/24 02:18:31;;;;;;;;;;;;;;;3.83;100.00;101139.66;4988997;28;19928;-81
2023/01/24 02:20:57;;;;;;;;;;;;;;;3.75;100.00;101142.88;4990116;28;19929;-82
2023/01/24 02:23:41;;;;;;;;;;;;;;;3.76;100.00;101143.78;4990693;28;19914;-81
2023/01/24 02:26:06;;;;;;;;;;;;;;;3.79;100.00;101154.31;4990536;28;19953;-81
2023/01/24 02:28:32;;;;;;;;;;;;;;;3.78;100.00;101152.53;4989441;28;19924;-82
2023/01/24 02:30:58;;;;;;;;;;;;;;;3.83;100.00;101155.31;4990047;28;20297;-81
2023/01/24 02:33:23;;;;;;;;;;;;;;;3.76;100.00;101157.69;4989621;28;20092;-81
2023/01/24 02:35:49;;;;;;;;;;;;;;;3.78;100.00;101154.25;4989441;28;19929;-81
2023/01/24 02:38:23;;;;;;;;;;;;;;;3.59;100.00;101154.47;4988588;28;19926;-82
2023/01/24 02:40:52;;;;;;;;;;;;;;;3.64;100.00;101162.47;4989094;28;20037;-81
2023/01/24 02:43:19;;;;;;;;;;;;;;;3.62;100.00;101161.53;4987421;28;19929;-82
2023/01/24 02:45:44;;;;;;;;;;;;;;;3.54;100.00;101165.59;4989047;28;19940;-80
2023/01/24 02:48:10;;;;;;;;;;;;;;;3.61;100.00;101164.09;4988956;28;19925;-81
2023/01/24 02:53:31;;;;;;;;;;;;;;;3.79;100.00;101158.66;4988997;28;19984;-82
2023/01/24 02:58:42;;;;;;;;;;;;;;;3.71;100.00;101164.47;4989297;28;20005;-82
2023/01/24 03:01:08;;;;;;;;;;;;;;;3.80;100.00;101157.81;4988297;28;19918;-82
2023/01/24 03:03:33;;;;;;;;;;;;;;;3.79;100.00;101161.28;4988743;28;19928;-81
2023/01/24 03:05:58;;;;;;;;;;;;;;;3.68;100.00;101161.75;4988964;28;19921;-81
2023/01/24 03:08:28;;;;;;;;;;;;;;;3.66;100.00;101155.59;4988266;28;19965;-84
2023/01/24 03:10:54;;;;;;;;;;;;;;;3.63;100.00;101158.09;4988496;28;19929;-84
2023/01/24 03:35:13;;;;;;;;;;;;;;;3.77;100.00;101163.84;4919511;28;1982566;-82
2023/01/24 03:40:22;;;;;;;;;;;;;;;3.49;100.00;101164.50;4988984;28;19928;-82
2023/01/24 03:42:47;;;;;;;;;;;;;;;3.49;100.00;101164.50;4988554;28;19926;-82
2023/01/24 03:45:29;;;;;;;;;;;;;;;3.57;100.00;101165.72;4989300;28;19928;-81
2023/01/24 03:47:59;;;;;;;;;;;;;;;3.66;100.00;101168.66;4970651;28;20327;-81
2023/01/24 03:53:11;;;;;;;;;;;;;;;3.32;100.00;101163.88;4988772;28;19929;-82
2023/01/24 03:55:37;;;;;;;;;;;;;;;3.39;100.00;101158.06;4988949;28;19922;-82
2023/01/24 03:58:02;;;;;;;;;;;;;;;3.43;100.00;101159.06;4978142;28;20492;-81
2023/01/24 04:00:28;;;;;;;;;;;;;;;3.32;100.00;101156.06;4971319;28;20391;-82
2023/01/24 04:02:53;;;;;;;;;;;;;;;3.29;100.00;101161.16;4988684;28;19937;-80
2023/01/24 04:05:20;;;;;;;;;;;;;;;3.16;100.00;101158.09;4988028;28;19917;-81
2023/01/24 04:07:45;;;;;;;;;;;;;;;3.29;100.00;101164.69;4988035;28;19933;-83
2023/01/24 04:10:11;;;;;;;;;;;;;;;3.27;100.00;101162.84;4988073;28;19922;-82
2023/01/24 04:12:36;;;;;;;;;;;;;;;3.26;100.00;101167.16;4988951;28;19913;-82
2023/01/24 04:15:01;;;;;;;;;;;;;;;3.24;100.00;101166.19;4988314;28;19917;-81
2023/01/24 04:17:27;;;;;;;;;;;;;;;3.25;100.00;101168.00;4988651;28;19988;-82
2023/01/24 04:19:52;;;;;;;;;;;;;;;3.22;100.00;101158.31;4987677;28;19922;-81
2023/01/24 04:22:18;;;;;;;;;;;;;;;3.21;100.00;101164.38;4987408;28;19925;-82
2023/01/24 04:24:43;;;;;;;;;;;;;;;3.17;100.00;101162.47;4986632;28;19932;-82
2023/01/24 04:27:09;;;;;;;;;;;;;;;3.17;100.00;101159.88;4984998;28;20459;-81
2023/01/24 04:29:34;;;;;;;;;;;;;;;3.21;100.00;101164.38;4988385;28;19921;-81
2023/01/24 04:31:59;;;;;;;;;;;;;;;3.21;100.00;101159.16;4987628;28;20057;-82
2023/01/24 04:34:24;;;;;;;;;;;;;;;3.29;100.00;101156.84;4986949;28;19965;-81
2023/01/24 04:36:50;;;;;;;;;;;;;;;3.19;100.00;101158.19;4985482;28;19965;-84
2023/01/24 04:39:15;;;;;;;;;;;;;;;3.08;100.00;101156.03;4969806;28;20075;-82
2023/01/24 04:41:41;;;;;;;;;;;;;;;3.08;100.00;101169.94;4989112;28;19922;-82
2023/01/24 04:44:06;;;;;;;;;;;;;;;3.19;100.00;101162.53;4987087;28;19933;-83
2023/01/24 04:46:31;;;;;;;;;;;;;;;3.28;100.00;101164.63;4970865;28;19922;-84
2023/01/24 04:48:57;;;;;;;;;;;;;;;3.16;100.00;101165.03;4986568;28;19984;-83
2023/01/24 04:51:22;;;;;;;;;;;;;;;3.07;100.00;101167.28;4982972;28;19948;-83
2023/01/24 04:53:47;;;;;;;;;;;;;;;2.85;100.00;101174.25;4984439;28;19936;-82
2023/01/24 04:56:13;;;;;;;;;;;;;;;2.87;100.00;101169.97;4969296;28;19934;-81
2023/01/24 04:58:38;;;;;;;;;;;;;;;3.05;100.00;101175.03;4978446;28;19922;-81
2023/01/24 05:01:03;;;;;;;;;;;;;;;3.03;100.00;101176.72;4988499;28;19929;-81
2023/01/24 05:03:29;;;;;;;;;;;;;;;3.07;100.00;101177.72;4980344;28;19929;-84
2023/01/24 05:05:55;;;;;;;;;;;;;;;2.97;100.00;101177.34;4977414;28;19921;-82
2023/01/24 05:08:21;;;;;;;;;;;;;;;3.16;100.00;101178.06;4982434;28;19932;-83
2023/01/24 05:10:49;;;;;;;;;;;;;;;3.11;100.00;101183.09;4989596;28;19928;-83
2023/01/24 05:13:23;;;;;;;;;;;;;;;2.92;100.00;101183.19;4984394;28;19918;-85
2023/01/24 05:16:03;;;;;;;;;;;;;;;3.10;100.00;101189.13;4982248;28;19929;-85
2023/01/24 05:18:29;;;;;;;;;;;;;;;3.25;100.00;101187.97;4981734;28;19964;-84
2023/01/24 05:21:04;;;;;;;;;;;;;;;3.29;100.00;101189.84;4978766;28;20360;-83
2023/01/24 05:23:29;;;;;;;;;;;;;;;3.24;100.00;101187.06;4969669;28;19930;-82
2023/01/24 05:25:58;;;;;;;;;;;;;;;3.22;100.00;101188.72;4958716;28;20576;-84
2023/01/24 05:28:23;;;;;;;;;;;;;;;3.12;100.00;101199.63;4970632;28;19922;-84
2023/01/24 05:31:29;;;;;;;;;;;;;;;3.09;100.00;101191.69;4988449;28;19997;-83
2023/01/24 05:34:09;;;;;;;;;;;;;;;2.93;100.00;101191.06;4989680;28;20020;-84
2023/01/24 05:42:43;;;;;;;;;;;;;;;2.86;100.00;101197.78;4978276;28;19990;-83
2023/01/24 05:45:14;;;;;;;;;;;;;;;2.92;100.00;101204.97;4971156;28;19925;-83
2023/01/24 05:47:39;;;;;;;;;;;;;;;3.07;100.00;101203.78;4988261;28;19928;-84
2023/01/24 05:50:08;;;;;;;;;;;;;;;3.09;100.00;101202.09;4988708;28;20330;-82
2023/01/24 05:55:57;;;;;;;;;;;;;;;2.92;100.00;101197.13;4994102;28;19928;-87
2023/01/24 06:01:39;;;;;;;;;;;;;;;2.93;100.00;101196.28;4914205;29;19950;-83
2023/01/24 06:04:22;;;;;;;;;;;;;;;2.88;100.00;101204.78;4895114;29;20427;-85
2023/01/24 06:06:55;;;;;;;;;;;;;;;2.82;100.00;101208.00;4874911;29;19928;-83
2023/01/24 06:09:21;;;;;;;;;;;;;;;2.83;100.00;101209.81;4888347;29;19926;-82
2023/01/24 06:11:46;;;;;;;;;;;;;;;2.93;100.00;101218.88;4875420;29;19931;-82
2023/01/24 06:14:12;;;;;;;;;;;;;;;3.06;100.00;101223.75;4860362;29;19935;-82
2023/01/24 06:17:08;;;;;;;;;;;;;;;3.06;99.94;101226.38;4875843;29;19930;-84
2023/01/24 06:19:33;;;;;;;;;;;;;;;2.81;100.00;101220.16;4867991;29;19940;-82
2023/01/24 06:25:17;;;;;;;;;;;;;;;2.95;99.90;101232.84;4853228;29;19935;-82
2023/01/24 06:27:42;;;;;;;;;;;;;;;3.34;99.82;101233.56;4851462;29;19928;-83
2023/01/24 06:30:11;;;;;;;;;;;;;;;3.39;98.16;101228.50;4833878;29;19928;-83
2023/01/24 06:32:55;;;;;;;;;;;;;;;3.24;97.35;101241.84;4832308;29;19940;-83
2023/01/24 06:35:27;;;;;;;;;;;;;;;3.07;97.48;101235.06;4863977;29;19962;-82
2023/01/24 06:37:53;;;;;;;;;;;;;;;3.11;98.27;101235.25;4896945;29;19969;-82
2023/01/24 06:40:19;;;;;;;;;;;;;;;3.11;98.24;101247.41;4928783;29;20025;-81
2023/01/24 06:42:45;;;;;;;;;;;;;;;2.84;97.87;101238.53;4928756;29;19958;-80
2023/01/24 06:45:11;;;;;;;;;;;;;;;2.83;97.97;101248.91;4930063;29;19931;-83
2023/01/24 06:47:36;;;;;;;;;;;;;;;2.84;97.99;101255.88;4930573;29;19950;-84
2023/01/24 06:50:04;;;;;;;;;;;;;;;3.04;97.56;101252.38;4931614;29;19942;-82
2023/01/24 06:52:30;;;;;;;;;;;;;;;2.74;97.09;101244.19;4931118;29;19929;-82
2023/01/24 06:54:55;;;;;;;;;;;;;;;2.85;96.89;101257.66;4930549;29;20017;-82
2023/01/24 06:57:20;;;;;;;;;;;;;;;2.69;96.96;101261.34;4929557;29;19919;-82
2023/01/24 06:59:46;;;;;;;;;;;;;;;2.80;97.08;101259.19;4930002;29;20016;-80
2023/01/24 07:02:11;;;;;;;;;;;;;;;2.75;96.18;101263.31;4960958;28;19921;-81
2023/01/24 07:04:36;;;;;;;;;;;;;;;3.06;95.97;101265.47;4974827;28;19929;-89
2023/01/24 07:07:02;;;;;;;;;;;;;;;3.17;95.00;101265.91;4989401;28;19918;-83
2023/01/24 07:09:29;;;;;;;;;;;;;;;3.15;94.48;101267.53;4979996;28;19922;-82
2023/01/24 07:11:58;;;;;;;;;;;;;;;3.04;93.88;101282.75;4990713;28;19918;-83
2023/01/24 07:14:23;;;;;;;;;;;;;;;2.81;93.71;101279.19;4981087;28;19922;-81
2023/01/24 07:16:50;;;;;;;;;;;;;;;2.81;93.65;101266.16;4970625;28;20388;-81
2023/01/24 07:19:16;;;;;;;;;;;;;;;2.75;94.33;101276.34;4979349;28;19968;-80
2023/01/24 07:21:42;;;;;;;;;;;;;;;2.77;94.31;101279.91;4970483;28;19924;-83
2023/01/24 07:24:13;;;;;;;;;;;;;;;2.85;93.92;101275.91;4980543;28;19918;-87
2023/01/24 07:26:38;;;;;;;;;;;;;;;2.91;93.40;101285.72;4970112;28;20396;-80
2023/01/24 07:29:04;;;;;;;;;;;;;;;2.77;93.10;101285.13;4981532;28;19928;-81
2023/01/24 07:31:32;;;;;;;;;;;;;;;2.81;93.34;101287.03;4989635;28;19922;-82
2023/01/24 07:33:58;;;;;;;;;;;;;;;2.80;92.58;101291.34;4987954;28;19925;-82
2023/01/24 07:36:23;;;;;;;;;;;;;;;2.73;92.86;101291.91;4989391;28;19928;-81
2023/01/24 07:38:48;;;;;;;;;;;;;;;2.98;92.73;101293.84;4989300;28;20045;-85
2023/01/24 07:41:14;;;;;;;;;;;;;;;3.04;92.49;101288.88;4987941;28;20339;-82
2023/01/24 07:43:39;;;;;;;;;;;;;;;3.02;92.41;101289.63;4989080;28;20017;-83
2023/01/24 07:46:05;;;;;;;;;;;;;;;3.07;91.53;101290.69;4989332;28;19929;-80
2023/01/24 07:48:30;;;;;;;;;;;;;;;3.21;91.99;101286.97;4987849;28;19972;-81
2023/01/24 07:50:59;;;;;;;;;;;;;;;3.29;91.75;101297.69;4988732;28;20680;-83
2023/01/24 07:53:25;;;;;;;;;;;;;;;3.20;91.36;101289.50;4989568;28;20392;-83
2023/01/24 07:55:50;;;;;;;;;;;;;;;3.26;91.39;101292.38;4989384;28;19918;-82
2023/01/24 07:58:15;;;;;;;;;;;;;;;3.25;91.08;101295.78;4989212;28;20450;-82
2023/01/24 08:00:41;;;;;;;;;;;;;;;3.11;90.30;101287.41;4988977;28;19922;-83
2023/01/24 08:03:08;;;;;;;;;;;;;;;3.07;90.17;101300.25;4978695;28;19949;-81
2023/01/24 08:05:35;;;;;;;;;;;;;;;3.09;90.60;101298.59;4969078;28;20005;-81
2023/01/24 08:08:01;;;;;;;;;;;;;;;2.92;89.79;101303.09;4970113;28;19978;-82
2023/01/24 08:10:29;;;;;;;;;;;;;;;3.22;89.91;101301.75;4968217;28;20324;-81
2023/01/24 08:12:54;;;;;;;;;;;;;;;3.04;89.92;101308.81;4968504;28;20359;-83
2023/01/24 08:15:20;;;;;;;;;;;;;;;3.09;89.40;101314.22;4969251;28;19922;-82
2023/01/24 08:17:45;;;;;;;;;;;;;;;2.98;89.61;101311.19;4968977;28;19921;-81
2023/01/24 08:20:10;;;;;;;;;;;;;;;2.99;89.29;101297.34;4968986;28;19922;-86
2023/01/24 08:22:37;;;;;;;;;;;;;;;3.30;89.38;101316.84;4970116;28;19921;-81
2023/01/24 08:25:03;;;;;;;;;;;;;;;3.31;88.31;101308.19;4968830;28;19961;-83
2023/01/24 08:27:28;;;;;;;;;;;;;;;3.34;88.91;101318.75;4969963;28;19964;-81
2023/01/24 08:29:53;;;;;;;;;;;;;;;3.56;89.12;101317.88;4969701;28;20328;-83
2023/01/24 08:32:19;;;;;;;;;;;;;;;3.28;87.59;101313.28;4969026;28;19922;-80
2023/01/24 08:34:44;;;;;;;;;;;;;;;3.31;88.02;101311.69;4968800;28;19926;-80
2023/01/24 08:37:09;;;;;;;;;;;;;;;3.48;89.23;101306.25;4969607;28;19969;-81
2023/01/24 08:39:35;;;;;;;;;;;;;;;3.49;88.50;101305.41;4968894;28;19924;-82
2023/01/24 08:42:00;;;;;;;;;;;;;;;3.61;88.72;101308.50;4968300;28;19958;-82
2023/01/24 08:44:26;;;;;;;;;;;;;;;3.26;87.72;101304.50;4969270;28;19965;-81
2023/01/24 08:46:51;;;;;;;;;;;;;;;3.21;87.17;101301.69;4968632;28;19922;-82
2023/01/24 08:49:16;;;;;;;;;;;;;;;3.28;87.42;101313.28;4968686;28;19922;-82
2023/01/24 08:51:42;;;;;;;;;;;;;;;3.36;87.84;101319.69;4969417;28;20467;-82
2023/01/24 08:54:07;;;;;;;;;;;;;;;3.25;87.10;101321.00;4967542;28;19969;-83
2023/01/24 08:56:33;;;;;;;;;;;;;;;3.32;88.16;101316.09;4968936;28;20427;-82
2023/01/24 08:58:59;;;;;;;;;;;;;;;3.70;86.28;101326.25;4968828;28;19918;-81
2023/01/24 09:01:26;;;;;;;;;;;;;;;3.51;86.40;101322.91;4968507;28;20018;-82
2023/01/24 09:03:51;;;;;;;;;;;;;;;3.46;85.52;101320.94;4968717;28;19922;-82
2023/01/24 09:06:17;;;;;;;;;;;;;;;3.42;85.55;101321.66;4968776;28;19977;-81
2023/01/24 09:08:42;;;;;;;;;;;;;;;3.63;86.64;101322.53;4968599;28;20376;-82
2023/01/24 09:11:08;;;;;;;;;;;;;;;3.73;85.19;101321.16;4968501;28;19924;-82
2023/01/24 09:13:33;;;;;;;;;;;;;;;3.45;85.21;101317.47;4968586;28;19930;-81
2023/01/24 09:15:59;;;;;;;;;;;;;;;3.51;84.83;101314.22;4968256;28;20352;-82
2023/01/24 09:18:24;;;;;;;;;;;;;;;3.63;84.99;101316.38;4968075;28;19918;-81
2023/01/24 09:20:50;;;;;;;;;;;;;;;3.59;84.49;101320.63;4968644;28;20299;-79
2023/01/24 09:23:15;;;;;;;;;;;;;;;3.52;84.12;101311.66;4968157;28;19931;-80
2023/01/24 09:25:49;;;;;;;;;;;;;;;3.52;84.81;101309.06;4968409;28;20431;-84
2023/01/24 09:28:14;;;;;;;;;;;;;;;3.65;84.85;101323.47;4969030;28;19918;-82
2023/01/24 09:30:40;;;;;;;;;;;;;;;3.75;84.74;101309.94;4973235;28;19914;-81
2023/01/24 09:33:05;;;;;;;;;;;;;;;3.88;84.65;101307.81;4974433;28;19926;-80
2023/01/24 09:35:31;;;;;;;;;;;;;;;3.85;83.67;101310.31;4992016;28;19925;-81
2023/01/24 09:37:57;;;;;;;;;;;;;;;3.81;82.90;101298.84;4991858;28;20182;-81
2023/01/24 09:40:26;;;;;;;;;;;;;;;3.84;83.08;101301.56;4991656;28;20347;-80
2023/01/24 09:43:01;;;;;;;;;;;;;;;3.86;83.50;101296.41;4991328;28;19968;-80
2023/01/24 09:45:32;;;;;;;;;;;;;;;3.93;82.79;101299.28;4978209;28;20459;-82
2023/01/24 09:48:01;;;;;;;;;;;;;;;3.95;82.41;101291.53;4971637;28;19925;-80
2023/01/24 09:50:46;;;;;;;;;;;;;;;3.86;82.73;101293.78;4971648;28;19961;-80
2023/01/24 09:53:21;;;;;;;;;;;;;;;3.78;83.25;101290.00;4972208;28;19933;-81
2023/01/24 09:55:47;;;;;;;;;;;;;;;4.05;83.17;101292.78;4971107;28;20058;-82
2023/01/24 09:58:18;;;;;;;;;;;;;;;4.13;82.21;101294.81;4970518;28;20447;-83
2023/01/24 10:00:47;;;;;;;;;;;;;;;4.13;82.78;101288.72;4972761;28;19922;-86
2023/01/24 10:03:25;;;;;;;;;;;;;;;4.32;83.07;101284.16;4971001;28;19922;-83
2023/01/24 10:05:56;;;;;;;;;;;;;;;4.33;82.01;101278.97;4974406;28;19922;-82
2023/01/24 10:08:49;;;;;;;;;;;;;;;4.47;81.57;101277.75;4972317;28;19924;-82
2023/01/24 10:11:32;;;;;;;;;;;;;;;4.45;80.57;101279.41;4972063;28;19918;-81
2023/01/24 10:14:36;;;;;;;;;;;;;;;4.27;80.08;101277.03;4974155;28;19918;-82
2023/01/24 10:17:04;;;;;;;;;;;;;;;4.25;80.25;101275.22;4913025;29;20005;-84
2023/01/24 10:19:49;;;;;;;;;;;;;;;4.52;80.31;101271.78;4912742;29;19927;-81
2023/01/24 10:22:27;;;;;;;;;;;;;;;4.61;81.09;101259.03;4878020;29;19970;-83
2023/01/24 10:25:14;;;;;;;;;;;;;;;4.70;79.61;101261.97;4907454;29;19926;-81
2023/01/24 10:27:42;;;;;;;;;;;;;;;4.72;79.27;101257.66;4912397;29;19923;-82
2023/01/24 10:30:17;;;;;;;;;;;;;;;4.67;79.19;101246.19;4911184;29;20391;-81
2023/01/24 10:32:43;;;;;;;;;;;;;;;4.53;78.83;101248.31;4911699;29;19934;-83
2023/01/24 10:35:12;;;;;;;;;;;;;;;4.63;78.85;101244.28;4901878;29;19928;-84
2023/01/24 10:37:38;;;;;;;;;;;;;;;4.68;78.49;101240.13;4907386;29;19923;-82
2023/01/24 10:40:13;;;;;;;;;;;;;;;4.76;78.17;101240.38;4895351;29;20860;-80
2023/01/24 10:42:39;;;;;;;;;;;;;;;4.81;78.61;101241.41;4904595;29;19967;-82
2023/01/24 10:45:22;;;;;;;;;;;;;;;4.63;77.87;101239.97;4880702;29;20434;-79
2023/01/24 10:47:56;;;;;;;;;;;;;;;4.57;78.37;101236.25;4912853;29;19927;-79
2023/01/24 10:50:23;;;;;;;;;;;;;;;4.61;78.74;101231.16;4920309;29;19923;-82
2023/01/24 10:52:49;;;;;;;;;;;;;;;4.57;78.19;101231.91;4929459;29;20401;-81
2023/01/24 10:55:38;;;;;;;;;;;;;;;4.67;77.88;101233.13;4913759;29;19925;-84
2023/01/24 10:58:21;;;;;;;;;;;;;;;5.07;78.63;101228.31;4929423;29;19973;-80
2023/01/24 11:00:54;;;;;;;;;;;;;;;4.86;76.92;101236.34;4989974;28;19922;-80
2023/01/24 11:03:23;;;;;;;;;;;;;;;4.79;77.55;101227.41;4989606;28;19924;-80
2023/01/24 11:05:50;;;;;;;;;;;;;;;4.76;76.91;101232.53;4989898;28;19922;-85
2023/01/24 11:08:31;;;;;;;;;;;;;;;4.84;76.24;101221.47;4972410;28;20056;-80
2023/01/24 11:10:59;;;;;;;;;;;;;;;4.90;76.69;101230.38;4989975;28;19921;-80
2023/01/24 11:13:28;;;;;;;;;;;;;;;4.94;76.78;101227.00;4988331;28;20355;-81
2023/01/24 11:15:55;;;;;;;;;;;;;;;4.87;76.74;101223.31;4989671;28;19980;-79
2023/01/24 11:18:23;;;;;;;;;;;;;;;5.06;76.41;101221.28;4989302;28;19945;-80
2023/01/24 11:21:03;;;;;;;;;;;;;;;4.96;75.58;101213.16;4990011;28;20024;-81
2023/01/24 11:23:28;;;;;;;;;;;;;;;5.36;76.60;101210.88;4989404;28;19922;-80
2023/01/24 11:25:58;;;;;;;;;;;;;;;5.20;75.82;101209.53;4989461;28;19924;-81
2023/01/24 11:28:34;;;;;;;;;;;;;;;5.23;75.32;101211.34;4989285;28;19990;-82
2023/01/24 11:31:14;;;;;;;;;;;;;;;5.38;75.14;101202.22;4982255;28;19918;-82
2023/01/24 11:34:01;;;;;;;;;;;;;;;5.00;74.82;101182.75;4969610;28;19933;-81
2023/01/24 11:36:55;;;;;;;;;;;;;;;5.49;75.78;101206.91;4988768;28;19922;-83
2023/01/24 11:39:27;;;;;;;;;;;;;;;5.50;75.21;101204.34;4979519;28;19926;-81
2023/01/24 11:41:58;;;;;;;;;;;;;;;5.63;74.73;101197.72;4952140;28;19922;-80
2023/01/24 11:44:33;;;;;;;;;;;;;;;5.57;74.23;101189.69;4969932;28;20459;-81
2023/01/24 11:46:58;;;;;;;;;;;;;;;5.50;74.43;101198.19;4970402;28;19922;-81
2023/01/24 11:49:41;;;;;;;;;;;;;;;5.57;73.14;101189.69;4986951;28;19984;-81
2023/01/24 11:52:17;;;;;;;;;;;;;;;5.72;73.65;101190.13;4988744;28;20015;-80
2023/01/24 11:54:58;;;;;;;;;;;;;;;5.67;73.46;101193.47;4988972;28;19976;-81
2023/01/24 11:57:35;;;;;;;;;;;;;;;5.76;72.64;101182.38;4989079;28;19925;-79
2023/01/24 12:00:16;;;;;;;;;;;;;;;5.92;72.49;101185.47;4988735;28;20013;-80
2023/01/24 12:02:41;;;;;;;;;;;;;;;5.83;72.25;101189.56;4988983;28;20009;-81
2023/01/24 12:05:25;;;;;;;;;;;;;;;5.57;73.01;101193.19;4988409;28;20012;-80
2023/01/24 12:08:08;;;;;;;;;;;;;;;5.50;73.43;101191.25;4988945;28;19918;-81
2023/01/24 12:10:43;;;;;;;;;;;;;;;5.80;73.81;101189.47;4988967;28;20372;-80
2023/01/24 12:13:16;;;;;;;;;;;;;;;5.84;72.71;101191.31;4988444;28;19936;-80
2023/01/24 12:15:57;;;;;;;;;;;;;;;5.72;73.60;101179.66;4988029;28;20494;-80
2023/01/24 12:18:28;;;;;;;;;;;;;;;5.67;74.58;101182.97;4988183;28;19967;-80
2023/01/24 12:21:03;;;;;;;;;;;;;;;5.89;73.63;101182.75;4988164;28;19921;-81
2023/01/24 12:23:51;;;;;;;;;;;;;;;5.57;73.95;101185.34;4988334;28;19953;-81
2023/01/24 12:26:25;;;;;;;;;;;;;;;5.39;74.72;101187.41;4988166;28;19922;-80
2023/01/24 12:29:13;;;;;;;;;;;;;;;5.50;75.17;101177.25;4987811;28;20055;-80
2023/01/24 12:31:43;;;;;;;;;;;;;;;5.67;74.68;101173.41;4926984;29;19923;-80
2023/01/24 12:34:34;;;;;;;;;;;;;;;5.58;74.45;101178.41;4926558;29;19938;-81
2023/01/24 12:37:02;;;;;;;;;;;;;;;5.75;74.55;101176.25;4912826;29;19926;-82
2023/01/24 12:39:35;;;;;;;;;;;;;;;5.97;74.14;101180.38;4927431;29;20017;-82
2023/01/24 12:42:12;;;;;;;;;;;;;;;5.90;73.81;101186.25;4927457;29;19930;-80
2023/01/24 12:44:42;;;;;;;;;;;;;;;6.10;74.12;101173.75;4927631;29;19926;-80
2023/01/24 12:47:10;;;;;;;;;;;;;;;5.85;73.61;101185.25;4927582;29;19922;-79
2023/01/24 12:49:47;;;;;;;;;;;;;;;6.12;73.25;101190.41;4927609;29;19915;-80
2023/01/24 12:52:22;;;;;;;;;;;;;;;6.20;72.70;101186.25;4912914;29;19923;-81
2023/01/24 12:54:50;;;;;;;;;;;;;;;6.11;71.95;101187.75;4908467;29;19923;-83
2023/01/24 12:57:25;;;;;;;;;;;;;;;6.22;72.89;101189.78;4908762;29;20380;-81
2023/01/24 12:59:50;;;;;;;;;;;;;;;6.48;72.74;101186.97;4908251;29;20018;-82
2023/01/24 13:02:34;;;;;;;;;;;;;;;6.20;73.06;101178.38;4908317;29;20010;-82
2023/01/24 13:05:14;;;;;;;;;;;;;;;6.10;72.83;101178.97;4908819;29;19966;-79
2023/01/24 13:07:55;;;;;;;;;;;;;;;6.24;72.18;101181.97;4913852;28;19930;-80
2023/01/24 13:10:20;;;;;;;;;;;;;;;6.35;72.73;101185.78;4967958;28;19925;-81
2023/01/24 13:12:47;;;;;;;;;;;;;;;6.41;72.55;101188.56;4968541;28;19922;-80
2023/01/24 13:15:20;;;;;;;;;;;;;;;6.45;72.49;101189.50;4968048;28;19933;-80
2023/01/24 13:17:55;;;;;;;;;;;;;;;6.30;72.42;101182.13;4966972;28;20319;-81
2023/01/24 13:20:27;;;;;;;;;;;;;;;6.48;71.31;101188.72;4968268;28;19918;-81
2023/01/24 13:23:06;;;;;;;;;;;;;;;6.39;72.17;101190.22;4968137;28;19945;-82
2023/01/24 13:25:40;;;;;;;;;;;;;;;6.22;72.16;101189.78;4968064;28;19918;-82
2023/01/24 13:28:18;;;;;;;;;;;;;;;6.35;72.88;101187.50;4968224;28;19923;-83
2023/01/24 13:31:00;;;;;;;;;;;;;;;6.45;71.94;101192.13;4968096;28;19922;-81
2023/01/24 13:33:32;;;;;;;;;;;;;;;6.29;71.34;101193.47;4960324;28;19927;-81
2023/01/24 13:36:03;;;;;;;;;;;;;;;6.54;71.38;101191.50;4929784;29;19945;-81
2023/01/24 13:38:29;;;;;;;;;;;;;;;6.56;71.36;101197.66;4930418;29;20329;-83
2023/01/24 13:41:02;;;;;;;;;;;;;;;6.48;71.92;101199.19;4929645;29;19945;-81
2023/01/24 13:43:36;;;;;;;;;;;;;;;6.73;70.34;101204.19;4929555;29;20313;-81
2023/01/24 13:46:02;;;;;;;;;;;;;;;6.44;71.27;101206.06;4929140;29;19923;-83